sensor_id;sensor_type;location;lat;lon;timestamp;P1;durP1;ratioP1;P2;durP2;ratioP2
46322;SDS011;32044;52.386;13.278;2023-02-02T00:01:18;25.80;;;3.60;;
46322;SDS011;32044;52.386;13.278;2023-02-02T00:03:46;25.00;;;4.50;;
46322;SDS011;32044;52.386;13.278;2023-02-02T00:06:16;17.52;;;4.18;;
46322;SDS011;32044;52.386;13.278;2023-02-02T00:08:43;18.80;;;3.22;;
46322;SDS011;32044;52.386;13.278;2023-02-02T00:11:13;16.75;;;4.18;;
46322;SDS011;32044;52.386;13.278;2023-02-02T00:13:40;28.52;;;4.00;;
46322;SDS011;32044;52.386;13.278;2023-02-02T00:16:32;23.38;;;4.90;;
46322;SDS011;32044;52.386;13.278;2023-02-02T00:19:02;30.75;;;4.70;;
46322;SDS011;32044;52.386;13.278;2023-02-02T00:21:31;25.50;;;4.63;;
46322;SDS011;32044;52.386;13.278;2023-02-02T00:23:59;20.35;;;4.00;;
46322;SDS011;32044;52.386;13.278;2023-02-02T00:26:28;22.40;;;4.93;;
46322;SDS011;32044;52.386;13.278;2023-02-02T00:28:56;21.95;;;3.88;;
46322;SDS011;32044;52.386;13.278;2023-02-02T00:31:23;24.42;;;4.22;;
46322;SDS011;32044;52.386;13.278;2023-02-02T00:33:51;25.25;;;4.38;;
46322;SDS011;32044;52.386;13.278;2023-02-02T00:36:18;28.85;;;4.40;;
46322;SDS011;32044;52.386;13.278;2023-02-02T00:38:47;27.30;;;4.30;;
46322;SDS011;32044;52.386;13.278;2023-02-02T00:41:15;21.50;;;3.92;;
46322;SDS011;32044;52.386;13.278;2023-02-02T00:43:44;26.52;;;4.45;;
46322;SDS011;32044;52.386;13.278;2023-02-02T00:46:37;23.65;;;3.63;;
46322;SDS011;32044;52.386;13.278;2023-02-02T00:49:06;29.27;;;4.57;;
46322;SDS011;32044;52.386;13.278;2023-02-02T00:51:33;23.25;;;4.30;;
46322;SDS011;32044;52.386;13.278;2023-02-02T00:54:01;22.20;;;4.20;;
46322;SDS011;32044;52.386;13.278;2023-02-02T00:56:29;24.33;;;4.85;;
46322;SDS011;32044;52.386;13.278;2023-02-02T00:58:58;31.33;;;4.60;;
46322;SDS011;32044;52.386;13.278;2023-02-02T01:01:26;22.30;;;3.65;;
46322;SDS011;32044;52.386;13.278;2023-02-02T01:03:53;28.75;;;4.82;;
46322;SDS011;32044;52.386;13.278;2023-02-02T01:06:21;24.38;;;3.80;;
46322;SDS011;32044;52.386;13.278;2023-02-02T01:08:49;27.73;;;4.60;;
46322;SDS011;32044;52.386;13.278;2023-02-02T01:11:16;24.38;;;5.18;;
46322;SDS011;32044;52.386;13.278;2023-02-02T01:13:44;20.83;;;3.65;;
46322;SDS011;32044;52.386;13.278;2023-02-02T01:16:13;27.45;;;4.50;;
46322;SDS011;32044;52.386;13.278;2023-02-02T01:18:43;24.98;;;4.18;;
46322;SDS011;32044;52.386;13.278;2023-02-02T01:21:11;23.73;;;3.30;;
46322;SDS011;32044;52.386;13.278;2023-02-02T01:23:39;23.58;;;4.25;;
46322;SDS011;32044;52.386;13.278;2023-02-02T01:26:07;19.17;;;3.40;;
46322;SDS011;32044;52.386;13.278;2023-02-02T01:28:35;28.67;;;4.28;;
46322;SDS011;32044;52.386;13.278;2023-02-02T01:31:04;21.10;;;4.10;;
46322;SDS011;32044;52.386;13.278;2023-02-02T01:33:34;20.60;;;3.70;;
46322;SDS011;32044;52.386;13.278;2023-02-02T01:36:03;23.38;;;3.72;;
46322;SDS011;32044;52.386;13.278;2023-02-02T01:38:32;15.85;;;3.38;;
46322;SDS011;32044;52.386;13.278;2023-02-02T01:41:10;19.88;;;3.78;;
46322;SDS011;32044;52.386;13.278;2023-02-02T01:43:49;20.00;;;4.28;;
46322;SDS011;32044;52.386;13.278;2023-02-02T01:46:20;18.42;;;3.78;;
46322;SDS011;32044;52.386;13.278;2023-02-02T01:48:51;19.73;;;3.42;;
46322;SDS011;32044;52.386;13.278;2023-02-02T01:51:22;22.60;;;3.97;;
46322;SDS011;32044;52.386;13.278;2023-02-02T01:53:53;31.40;;;3.83;;
46322;SDS011;32044;52.386;13.278;2023-02-02T01:56:23;25.30;;;4.10;;
46322;SDS011;32044;52.386;13.278;2023-02-02T01:58:55;26.80;;;4.70;;
46322;SDS011;32044;52.386;13.278;2023-02-02T02:01:23;27.08;;;4.60;;
46322;SDS011;32044;52.386;13.278;2023-02-02T02:03:52;25.58;;;4.40;;
46322;SDS011;32044;52.386;13.278;2023-02-02T02:06:20;20.40;;;3.70;;
46322;SDS011;32044;52.386;13.278;2023-02-02T02:08:51;30.08;;;4.97;;
46322;SDS011;32044;52.386;13.278;2023-02-02T02:11:21;20.10;;;4.25;;
46322;SDS011;32044;52.386;13.278;2023-02-02T02:13:49;19.25;;;4.07;;
46322;SDS011;32044;52.386;13.278;2023-02-02T02:16:44;22.35;;;3.28;;
46322;SDS011;32044;52.386;13.278;2023-02-02T02:19:24;25.35;;;3.88;;
46322;SDS011;32044;52.386;13.278;2023-02-02T02:22:30;33.45;;;5.07;;
46322;SDS011;32044;52.386;13.278;2023-02-02T02:25:26;31.77;;;4.28;;
46322;SDS011;32044;52.386;13.278;2023-02-02T02:28:29;27.60;;;3.97;;
46322;SDS011;32044;52.386;13.278;2023-02-02T02:34:00;32.35;;;4.55;;
46322;SDS011;32044;52.386;13.278;2023-02-02T02:36:31;22.58;;;3.85;;
46322;SDS011;32044;52.386;13.278;2023-02-02T02:39:03;26.80;;;3.80;;
46322;SDS011;32044;52.386;13.278;2023-02-02T02:41:36;26.40;;;4.53;;
46322;SDS011;32044;52.386;13.278;2023-02-02T02:44:07;39.03;;;5.38;;
46322;SDS011;32044;52.386;13.278;2023-02-02T02:46:36;26.23;;;4.07;;
46322;SDS011;32044;52.386;13.278;2023-02-02T02:49:06;26.42;;;3.75;;
46322;SDS011;32044;52.386;13.278;2023-02-02T02:51:38;24.57;;;2.80;;
46322;SDS011;32044;52.386;13.278;2023-02-02T02:54:08;27.05;;;4.45;;
46322;SDS011;32044;52.386;13.278;2023-02-02T02:56:39;33.35;;;4.10;;
46322;SDS011;32044;52.386;13.278;2023-02-02T02:59:12;28.83;;;3.80;;
46322;SDS011;32044;52.386;13.278;2023-02-02T03:01:46;29.80;;;4.30;;
46322;SDS011;32044;52.386;13.278;2023-02-02T03:04:20;20.55;;;3.65;;
46322;SDS011;32044;52.386;13.278;2023-02-02T03:06:50;19.92;;;4.32;;
46322;SDS011;32044;52.386;13.278;2023-02-02T03:09:21;24.23;;;2.70;;
46322;SDS011;32044;52.386;13.278;2023-02-02T03:11:49;24.63;;;3.65;;
46322;SDS011;32044;52.386;13.278;2023-02-02T03:14:17;30.00;;;3.92;;
46322;SDS011;32044;52.386;13.278;2023-02-02T03:16:44;24.30;;;3.83;;
46322;SDS011;32044;52.386;13.278;2023-02-02T03:19:12;19.88;;;3.22;;
46322;SDS011;32044;52.386;13.278;2023-02-02T03:21:41;21.80;;;3.42;;
46322;SDS011;32044;52.386;13.278;2023-02-02T03:24:08;25.65;;;3.92;;
46322;SDS011;32044;52.386;13.278;2023-02-02T03:26:36;17.23;;;3.72;;
46322;SDS011;32044;52.386;13.278;2023-02-02T03:29:03;27.13;;;4.15;;
46322;SDS011;32044;52.386;13.278;2023-02-02T03:31:31;30.00;;;4.53;;
46322;SDS011;32044;52.386;13.278;2023-02-02T03:33:58;19.70;;;4.07;;
46322;SDS011;32044;52.386;13.278;2023-02-02T03:36:26;24.40;;;3.45;;
46322;SDS011;32044;52.386;13.278;2023-02-02T03:38:55;17.77;;;3.40;;
46322;SDS011;32044;52.386;13.278;2023-02-02T03:41:23;21.75;;;3.50;;
46322;SDS011;32044;52.386;13.278;2023-02-02T03:43:51;19.23;;;3.45;;
46322;SDS011;32044;52.386;13.278;2023-02-02T03:46:18;22.15;;;4.32;;
46322;SDS011;32044;52.386;13.278;2023-02-02T03:48:46;16.23;;;3.50;;
46322;SDS011;32044;52.386;13.278;2023-02-02T03:51:14;23.05;;;3.10;;
46322;SDS011;32044;52.386;13.278;2023-02-02T03:53:42;19.45;;;3.35;;
46322;SDS011;32044;52.386;13.278;2023-02-02T03:56:14;15.85;;;3.05;;
46322;SDS011;32044;52.386;13.278;2023-02-02T03:58:42;22.42;;;3.08;;
46322;SDS011;32044;52.386;13.278;2023-02-02T04:01:24;14.23;;;3.08;;
46322;SDS011;32044;52.386;13.278;2023-02-02T04:03:52;13.38;;;2.55;;
46322;SDS011;32044;52.386;13.278;2023-02-02T04:06:20;13.77;;;2.40;;
46322;SDS011;32044;52.386;13.278;2023-02-02T04:08:48;17.52;;;3.10;;
46322;SDS011;32044;52.386;13.278;2023-02-02T04:11:17;12.98;;;2.35;;
46322;SDS011;32044;52.386;13.278;2023-02-02T04:13:45;11.32;;;2.60;;
46322;SDS011;32044;52.386;13.278;2023-02-02T04:16:12;14.15;;;2.50;;
46322;SDS011;32044;52.386;13.278;2023-02-02T04:18:40;14.38;;;2.53;;
46322;SDS011;32044;52.386;13.278;2023-02-02T04:21:07;16.00;;;3.58;;
46322;SDS011;32044;52.386;13.278;2023-02-02T04:23:35;16.85;;;2.85;;
46322;SDS011;32044;52.386;13.278;2023-02-02T04:26:03;11.27;;;2.10;;
46322;SDS011;32044;52.386;13.278;2023-02-02T04:28:32;18.33;;;2.97;;
46322;SDS011;32044;52.386;13.278;2023-02-02T04:30:59;10.63;;;2.38;;
46322;SDS011;32044;52.386;13.278;2023-02-02T04:33:27;14.00;;;2.72;;
46322;SDS011;32044;52.386;13.278;2023-02-02T04:35:54;15.07;;;2.47;;
46322;SDS011;32044;52.386;13.278;2023-02-02T04:38:22;14.48;;;2.25;;
46322;SDS011;32044;52.386;13.278;2023-02-02T04:40:49;14.82;;;2.25;;
46322;SDS011;32044;52.386;13.278;2023-02-02T04:43:17;17.58;;;2.65;;
46322;SDS011;32044;52.386;13.278;2023-02-02T04:45:46;6.05;;;1.73;;
46322;SDS011;32044;52.386;13.278;2023-02-02T04:48:13;15.77;;;2.63;;
46322;SDS011;32044;52.386;13.278;2023-02-02T04:50:41;13.38;;;3.35;;
46322;SDS011;32044;52.386;13.278;2023-02-02T04:53:08;12.18;;;2.70;;
46322;SDS011;32044;52.386;13.278;2023-02-02T04:55:36;9.55;;;1.83;;
46322;SDS011;32044;52.386;13.278;2023-02-02T04:58:04;11.52;;;2.38;;
46322;SDS011;32044;52.386;13.278;2023-02-02T05:00:32;12.60;;;2.65;;
46322;SDS011;32044;52.386;13.278;2023-02-02T05:03:01;11.13;;;2.22;;
46322;SDS011;32044;52.386;13.278;2023-02-02T05:05:28;17.38;;;2.55;;
46322;SDS011;32044;52.386;13.278;2023-02-02T05:07:56;13.10;;;2.33;;
46322;SDS011;32044;52.386;13.278;2023-02-02T05:10:25;9.15;;;2.33;;
46322;SDS011;32044;52.386;13.278;2023-02-02T05:12:52;14.23;;;2.85;;
46322;SDS011;32044;52.386;13.278;2023-02-02T05:15:20;11.10;;;2.67;;
46322;SDS011;32044;52.386;13.278;2023-02-02T05:17:49;9.00;;;2.28;;
46322;SDS011;32044;52.386;13.278;2023-02-02T05:20:18;13.88;;;2.38;;
46322;SDS011;32044;52.386;13.278;2023-02-02T05:22:47;12.82;;;2.15;;
46322;SDS011;32044;52.386;13.278;2023-02-02T05:25:15;16.30;;;2.65;;
46322;SDS011;32044;52.386;13.278;2023-02-02T05:27:42;12.50;;;2.22;;
46322;SDS011;32044;52.386;13.278;2023-02-02T05:30:11;15.85;;;2.78;;
46322;SDS011;32044;52.386;13.278;2023-02-02T05:32:39;13.57;;;2.40;;
46322;SDS011;32044;52.386;13.278;2023-02-02T05:35:07;17.90;;;2.97;;
46322;SDS011;32044;52.386;13.278;2023-02-02T05:37:37;17.50;;;3.05;;
46322;SDS011;32044;52.386;13.278;2023-02-02T05:40:05;14.15;;;2.35;;
46322;SDS011;32044;52.386;13.278;2023-02-02T05:42:33;17.02;;;3.10;;
46322;SDS011;32044;52.386;13.278;2023-02-02T05:45:01;13.45;;;2.60;;
46322;SDS011;32044;52.386;13.278;2023-02-02T05:47:28;9.52;;;2.28;;
46322;SDS011;32044;52.386;13.278;2023-02-02T05:49:56;14.02;;;2.38;;
46322;SDS011;32044;52.386;13.278;2023-02-02T05:52:23;14.60;;;3.25;;
46322;SDS011;32044;52.386;13.278;2023-02-02T05:54:53;19.52;;;3.20;;
46322;SDS011;32044;52.386;13.278;2023-02-02T05:57:20;12.48;;;2.03;;
46322;SDS011;32044;52.386;13.278;2023-02-02T05:59:48;15.93;;;2.00;;
46322;SDS011;32044;52.386;13.278;2023-02-02T06:02:15;15.10;;;2.20;;
46322;SDS011;32044;52.386;13.278;2023-02-02T06:04:43;11.25;;;2.20;;
46322;SDS011;32044;52.386;13.278;2023-02-02T06:07:10;9.02;;;2.35;;
46322;SDS011;32044;52.386;13.278;2023-02-02T06:09:38;11.52;;;2.63;;
46322;SDS011;32044;52.386;13.278;2023-02-02T06:12:07;14.65;;;2.58;;
46322;SDS011;32044;52.386;13.278;2023-02-02T06:14:35;11.02;;;2.28;;
46322;SDS011;32044;52.386;13.278;2023-02-02T06:17:02;17.27;;;2.35;;
46322;SDS011;32044;52.386;13.278;2023-02-02T06:19:29;14.02;;;2.20;;
46322;SDS011;32044;52.386;13.278;2023-02-02T06:21:57;7.80;;;1.70;;
46322;SDS011;32044;52.386;13.278;2023-02-02T06:24:25;17.35;;;2.78;;
46322;SDS011;32044;52.386;13.278;2023-02-02T06:26:52;11.82;;;2.13;;
46322;SDS011;32044;52.386;13.278;2023-02-02T06:29:21;10.48;;;2.55;;
46322;SDS011;32044;52.386;13.278;2023-02-02T06:31:49;15.23;;;2.95;;
46322;SDS011;32044;52.386;13.278;2023-02-02T06:34:17;13.23;;;2.67;;
46322;SDS011;32044;52.386;13.278;2023-02-02T06:36:44;9.68;;;2.05;;
46322;SDS011;32044;52.386;13.278;2023-02-02T06:39:12;17.42;;;2.50;;
46322;SDS011;32044;52.386;13.278;2023-02-02T06:41:39;13.05;;;2.45;;
46322;SDS011;32044;52.386;13.278;2023-02-02T06:44:07;12.40;;;2.75;;
46322;SDS011;32044;52.386;13.278;2023-02-02T06:46:36;20.00;;;2.92;;
46322;SDS011;32044;52.386;13.278;2023-02-02T06:49:03;21.05;;;3.55;;
46322;SDS011;32044;52.386;13.278;2023-02-02T06:51:31;17.45;;;2.80;;
46322;SDS011;32044;52.386;13.278;2023-02-02T06:53:58;11.93;;;2.47;;
46322;SDS011;32044;52.386;13.278;2023-02-02T06:56:26;17.73;;;2.58;;
46322;SDS011;32044;52.386;13.278;2023-02-02T06:58:53;15.50;;;2.63;;
46322;SDS011;32044;52.386;13.278;2023-02-02T07:01:21;15.15;;;2.63;;
46322;SDS011;32044;52.386;13.278;2023-02-02T07:03:50;15.07;;;2.70;;
46322;SDS011;32044;52.386;13.278;2023-02-02T07:06:19;22.48;;;2.80;;
46322;SDS011;32044;52.386;13.278;2023-02-02T07:08:48;18.15;;;2.95;;
46322;SDS011;32044;52.386;13.278;2023-02-02T07:11:28;16.55;;;2.97;;
46322;SDS011;32044;52.386;13.278;2023-02-02T07:13:56;17.90;;;2.95;;
46322;SDS011;32044;52.386;13.278;2023-02-02T07:16:23;18.05;;;2.90;;
46322;SDS011;32044;52.386;13.278;2023-02-02T07:18:52;18.75;;;3.47;;
46322;SDS011;32044;52.386;13.278;2023-02-02T07:21:20;14.60;;;2.88;;
46322;SDS011;32044;52.386;13.278;2023-02-02T07:23:51;29.10;;;3.88;;
46322;SDS011;32044;52.386;13.278;2023-02-02T07:26:18;18.05;;;3.17;;
46322;SDS011;32044;52.386;13.278;2023-02-02T07:28:46;16.75;;;3.10;;
46322;SDS011;32044;52.386;13.278;2023-02-02T07:31:14;17.80;;;3.70;;
46322;SDS011;32044;52.386;13.278;2023-02-02T07:33:43;20.45;;;2.55;;
46322;SDS011;32044;52.386;13.278;2023-02-02T07:36:13;12.05;;;2.53;;
46322;SDS011;32044;52.386;13.278;2023-02-02T07:38:42;21.92;;;3.03;;
46322;SDS011;32044;52.386;13.278;2023-02-02T07:41:10;14.93;;;4.00;;
46322;SDS011;32044;52.386;13.278;2023-02-02T07:43:38;23.42;;;3.42;;
46322;SDS011;32044;52.386;13.278;2023-02-02T07:46:06;22.15;;;3.67;;
46322;SDS011;32044;52.386;13.278;2023-02-02T07:48:35;16.60;;;3.50;;
46322;SDS011;32044;52.386;13.278;2023-02-02T07:51:05;21.95;;;3.58;;
46322;SDS011;32044;52.386;13.278;2023-02-02T07:53:35;17.02;;;2.50;;
46322;SDS011;32044;52.386;13.278;2023-02-02T07:56:06;21.35;;;3.25;;
46322;SDS011;32044;52.386;13.278;2023-02-02T07:58:35;21.23;;;3.30;;
46322;SDS011;32044;52.386;13.278;2023-02-02T08:01:03;19.30;;;3.22;;
46322;SDS011;32044;52.386;13.278;2023-02-02T08:03:31;18.15;;;2.42;;
46322;SDS011;32044;52.386;13.278;2023-02-02T08:05:59;17.15;;;3.38;;
46322;SDS011;32044;52.386;13.278;2023-02-02T08:08:27;15.65;;;2.55;;
46322;SDS011;32044;52.386;13.278;2023-02-02T08:10:56;25.77;;;3.28;;
46322;SDS011;32044;52.386;13.278;2023-02-02T08:13:23;14.32;;;3.10;;
46322;SDS011;32044;52.386;13.278;2023-02-02T08:15:51;19.23;;;3.08;;
46322;SDS011;32044;52.386;13.278;2023-02-02T08:18:18;22.25;;;3.05;;
46322;SDS011;32044;52.386;13.278;2023-02-02T08:20:46;14.85;;;2.65;;
46322;SDS011;32044;52.386;13.278;2023-02-02T08:23:14;10.88;;;2.90;;
46322;SDS011;32044;52.386;13.278;2023-02-02T08:25:42;21.15;;;3.47;;
46322;SDS011;32044;52.386;13.278;2023-02-02T08:28:10;19.88;;;3.03;;
46322;SDS011;32044;52.386;13.278;2023-02-02T08:30:38;13.82;;;2.22;;
46322;SDS011;32044;52.386;13.278;2023-02-02T08:33:05;16.45;;;3.03;;
46322;SDS011;32044;52.386;13.278;2023-02-02T08:35:33;17.38;;;3.33;;
46322;SDS011;32044;52.386;13.278;2023-02-02T08:38:00;23.27;;;2.83;;
46322;SDS011;32044;52.386;13.278;2023-02-02T08:40:30;16.33;;;3.20;;
46322;SDS011;32044;52.386;13.278;2023-02-02T08:42:58;13.77;;;2.67;;
46322;SDS011;32044;52.386;13.278;2023-02-02T08:45:27;13.88;;;2.92;;
46322;SDS011;32044;52.386;13.278;2023-02-02T08:48:14;17.48;;;2.85;;
46322;SDS011;32044;52.386;13.278;2023-02-02T08:50:42;14.20;;;3.22;;
46322;SDS011;32044;52.386;13.278;2023-02-02T08:53:09;12.13;;;2.60;;
46322;SDS011;32044;52.386;13.278;2023-02-02T08:55:37;9.43;;;2.20;;
46322;SDS011;32044;52.386;13.278;2023-02-02T08:58:04;14.57;;;2.42;;
46322;SDS011;32044;52.386;13.278;2023-02-02T09:00:33;8.40;;;1.98;;
46322;SDS011;32044;52.386;13.278;2023-02-02T09:03:01;12.48;;;2.80;;
46322;SDS011;32044;52.386;13.278;2023-02-02T09:05:28;15.30;;;2.28;;
46322;SDS011;32044;52.386;13.278;2023-02-02T09:07:56;10.23;;;1.90;;
46322;SDS011;32044;52.386;13.278;2023-02-02T09:10:23;9.90;;;2.63;;
46322;SDS011;32044;52.386;13.278;2023-02-02T09:12:51;9.85;;;1.70;;
46322;SDS011;32044;52.386;13.278;2023-02-02T09:15:18;9.32;;;1.77;;
46322;SDS011;32044;52.386;13.278;2023-02-02T09:17:47;10.60;;;2.30;;
46322;SDS011;32044;52.386;13.278;2023-02-02T09:20:15;9.35;;;1.98;;
46322;SDS011;32044;52.386;13.278;2023-02-02T09:22:45;13.07;;;2.38;;
46322;SDS011;32044;52.386;13.278;2023-02-02T09:25:13;13.30;;;2.00;;
46322;SDS011;32044;52.386;13.278;2023-02-02T09:27:40;11.70;;;2.15;;
46322;SDS011;32044;52.386;13.278;2023-02-02T09:30:08;11.15;;;2.65;;
46322;SDS011;32044;52.386;13.278;2023-02-02T09:32:36;13.90;;;2.22;;
46322;SDS011;32044;52.386;13.278;2023-02-02T09:35:06;7.88;;;2.00;;
46322;SDS011;32044;52.386;13.278;2023-02-02T09:37:34;10.45;;;2.03;;
46322;SDS011;32044;52.386;13.278;2023-02-02T09:40:01;14.25;;;2.65;;
46322;SDS011;32044;52.386;13.278;2023-02-02T09:42:31;12.20;;;2.50;;
46322;SDS011;32044;52.386;13.278;2023-02-02T09:45:06;11.57;;;2.22;;
46322;SDS011;32044;52.386;13.278;2023-02-02T09:47:45;8.55;;;2.05;;
46322;SDS011;32044;52.386;13.278;2023-02-02T09:50:21;15.35;;;2.60;;
46322;SDS011;32044;52.386;13.278;2023-02-02T09:52:57;14.30;;;2.72;;
46322;SDS011;32044;52.386;13.278;2023-02-02T09:55:29;18.23;;;2.67;;
46322;SDS011;32044;52.386;13.278;2023-02-02T10:00:29;18.42;;;2.67;;
46322;SDS011;32044;52.386;13.278;2023-02-02T10:02:58;9.65;;;2.42;;
46322;SDS011;32044;52.386;13.278;2023-02-02T10:05:31;11.63;;;2.85;;
46322;SDS011;32044;52.386;13.278;2023-02-02T10:08:06;12.80;;;2.47;;
46322;SDS011;32044;52.386;13.278;2023-02-02T10:10:37;12.77;;;2.15;;
46322;SDS011;32044;52.386;13.278;2023-02-02T10:13:09;13.73;;;2.45;;
46322;SDS011;32044;52.386;13.278;2023-02-02T10:15:41;15.32;;;2.53;;
46322;SDS011;32044;52.386;13.278;2023-02-02T10:18:11;8.25;;;2.33;;
46322;SDS011;32044;52.386;13.278;2023-02-02T10:20:46;11.73;;;2.03;;
46322;SDS011;32044;52.386;13.278;2023-02-02T10:23:19;11.50;;;2.08;;
46322;SDS011;32044;52.386;13.278;2023-02-02T10:25:54;14.60;;;2.47;;
46322;SDS011;32044;52.386;13.278;2023-02-02T10:28:27;10.85;;;2.30;;
46322;SDS011;32044;52.386;13.278;2023-02-02T10:31:02;12.38;;;2.05;;
46322;SDS011;32044;52.386;13.278;2023-02-02T10:33:32;13.75;;;2.17;;
46322;SDS011;32044;52.386;13.278;2023-02-02T10:36:07;12.32;;;2.20;;
46322;SDS011;32044;52.386;13.278;2023-02-02T10:38:39;12.43;;;2.08;;
46322;SDS011;32044;52.386;13.278;2023-02-02T10:41:12;8.73;;;2.03;;
46322;SDS011;32044;52.386;13.278;2023-02-02T10:43:49;11.15;;;2.05;;
46322;SDS011;32044;52.386;13.278;2023-02-02T10:46:23;15.70;;;2.40;;
46322;SDS011;32044;52.386;13.278;2023-02-02T10:48:56;14.48;;;1.95;;
46322;SDS011;32044;52.386;13.278;2023-02-02T10:51:28;10.55;;;1.92;;
46322;SDS011;32044;52.386;13.278;2023-02-02T10:53:57;13.05;;;2.70;;
46322;SDS011;32044;52.386;13.278;2023-02-02T10:56:28;17.80;;;2.58;;
46322;SDS011;32044;52.386;13.278;2023-02-02T10:58:59;9.25;;;2.10;;
46322;SDS011;32044;52.386;13.278;2023-02-02T11:01:28;13.02;;;2.83;;
46322;SDS011;32044;52.386;13.278;2023-02-02T11:03:55;15.10;;;2.33;;
46322;SDS011;32044;52.386;13.278;2023-02-02T11:06:42;10.15;;;2.30;;
46322;SDS011;32044;52.386;13.278;2023-02-02T11:09:16;11.02;;;2.88;;
46322;SDS011;32044;52.386;13.278;2023-02-02T11:11:48;8.23;;;2.03;;
46322;SDS011;32044;52.386;13.278;2023-02-02T11:14:19;13.82;;;1.73;;
46322;SDS011;32044;52.386;13.278;2023-02-02T11:17:01;11.00;;;2.45;;
46322;SDS011;32044;52.386;13.278;2023-02-02T11:19:30;14.98;;;2.10;;
46322;SDS011;32044;52.386;13.278;2023-02-02T11:22:01;9.75;;;2.47;;
46322;SDS011;32044;52.386;13.278;2023-02-02T11:24:31;14.02;;;1.92;;
46322;SDS011;32044;52.386;13.278;2023-02-02T11:27:06;10.32;;;2.10;;
46322;SDS011;32044;52.386;13.278;2023-02-02T11:29:40;13.07;;;2.08;;
46322;SDS011;32044;52.386;13.278;2023-02-02T11:32:17;11.88;;;2.00;;
46322;SDS011;32044;52.386;13.278;2023-02-02T11:34:46;11.07;;;1.67;;
46322;SDS011;32044;52.386;13.278;2023-02-02T11:37:15;6.07;;;1.23;;
46322;SDS011;32044;52.386;13.278;2023-02-02T11:39:47;8.48;;;1.58;;
46322;SDS011;32044;52.386;13.278;2023-02-02T11:42:18;9.07;;;1.60;;
46322;SDS011;32044;52.386;13.278;2023-02-02T11:44:47;11.43;;;2.13;;
46322;SDS011;32044;52.386;13.278;2023-02-02T11:47:17;7.03;;;1.50;;
46322;SDS011;32044;52.386;13.278;2023-02-02T11:49:46;7.32;;;1.50;;
46322;SDS011;32044;52.386;13.278;2023-02-02T11:52:19;11.97;;;2.40;;
46322;SDS011;32044;52.386;13.278;2023-02-02T11:54:48;13.77;;;1.98;;
46322;SDS011;32044;52.386;13.278;2023-02-02T11:57:17;9.85;;;1.38;;
46322;SDS011;32044;52.386;13.278;2023-02-02T11:59:48;7.53;;;1.42;;
46322;SDS011;32044;52.386;13.278;2023-02-02T12:02:20;8.57;;;1.77;;
46322;SDS011;32044;52.386;13.278;2023-02-02T12:04:50;11.60;;;1.40;;
46322;SDS011;32044;52.386;13.278;2023-02-02T12:07:23;8.98;;;1.85;;
46322;SDS011;32044;52.386;13.278;2023-02-02T12:09:53;7.05;;;1.90;;
46322;SDS011;32044;52.386;13.278;2023-02-02T12:12:33;6.80;;;1.48;;
46322;SDS011;32044;52.386;13.278;2023-02-02T12:15:11;8.55;;;1.75;;
46322;SDS011;32044;52.386;13.278;2023-02-02T12:17:49;7.95;;;1.67;;
46322;SDS011;32044;52.386;13.278;2023-02-02T12:20:25;8.23;;;1.88;;
46322;SDS011;32044;52.386;13.278;2023-02-02T12:23:12;9.18;;;1.85;;
46322;SDS011;32044;52.386;13.278;2023-02-02T12:25:50;7.70;;;1.38;;
46322;SDS011;32044;52.386;13.278;2023-02-02T12:28:26;8.30;;;1.60;;
46322;SDS011;32044;52.386;13.278;2023-02-02T12:31:02;11.93;;;2.20;;
46322;SDS011;32044;52.386;13.278;2023-02-02T12:33:37;8.20;;;1.33;;
46322;SDS011;32044;52.386;13.278;2023-02-02T12:36:12;4.78;;;1.45;;
46322;SDS011;32044;52.386;13.278;2023-02-02T12:38:54;5.15;;;1.40;;
46322;SDS011;32044;52.386;13.278;2023-02-02T12:41:29;5.13;;;1.55;;
46322;SDS011;32044;52.386;13.278;2023-02-02T12:44:07;8.02;;;1.27;;
46322;SDS011;32044;52.386;13.278;2023-02-02T12:46:43;5.82;;;1.20;;
46322;SDS011;32044;52.386;13.278;2023-02-02T12:49:42;15.30;;;1.77;;
46322;SDS011;32044;52.386;13.278;2023-02-02T12:52:22;7.65;;;1.52;;
46322;SDS011;32044;52.386;13.278;2023-02-02T12:55:18;5.75;;;1.77;;
46322;SDS011;32044;52.386;13.278;2023-02-02T12:57:52;12.90;;;1.92;;
46322;SDS011;32044;52.386;13.278;2023-02-02T13:03:34;5.88;;;2.10;;
46322;SDS011;32044;52.386;13.278;2023-02-02T13:09:07;14.18;;;2.22;;
46322;SDS011;32044;52.386;13.278;2023-02-02T13:11:40;12.35;;;1.55;;
46322;SDS011;32044;52.386;13.278;2023-02-02T13:14:11;7.82;;;1.92;;
46322;SDS011;32044;52.386;13.278;2023-02-02T13:16:43;15.95;;;2.13;;
46322;SDS011;32044;52.386;13.278;2023-02-02T13:19:14;22.45;;;2.53;;
46322;SDS011;32044;52.386;13.278;2023-02-02T13:21:47;18.27;;;2.65;;
46322;SDS011;32044;52.386;13.278;2023-02-02T13:24:25;26.38;;;2.25;;
46322;SDS011;32044;52.386;13.278;2023-02-02T13:26:57;12.25;;;2.10;;
46322;SDS011;32044;52.386;13.278;2023-02-02T13:29:29;11.48;;;1.90;;
46322;SDS011;32044;52.386;13.278;2023-02-02T13:32:10;16.27;;;2.50;;
46322;SDS011;32044;52.386;13.278;2023-02-02T13:34:44;13.88;;;2.22;;
46322;SDS011;32044;52.386;13.278;2023-02-02T13:37:15;13.90;;;2.17;;
46322;SDS011;32044;52.386;13.278;2023-02-02T13:39:46;14.73;;;2.67;;
46322;SDS011;32044;52.386;13.278;2023-02-02T13:42:20;17.85;;;2.38;;
46322;SDS011;32044;52.386;13.278;2023-02-02T13:44:52;16.75;;;2.53;;
46322;SDS011;32044;52.386;13.278;2023-02-02T13:47:24;15.70;;;2.13;;
46322;SDS011;32044;52.386;13.278;2023-02-02T13:49:56;16.50;;;2.55;;
46322;SDS011;32044;52.386;13.278;2023-02-02T13:52:41;9.75;;;2.05;;
46322;SDS011;32044;52.386;13.278;2023-02-02T13:55:27;7.25;;;2.22;;
46322;SDS011;32044;52.386;13.278;2023-02-02T13:58:17;11.43;;;1.73;;
46322;SDS011;32044;52.386;13.278;2023-02-02T14:00:53;13.52;;;2.17;;
46322;SDS011;32044;52.386;13.278;2023-02-02T14:03:27;16.75;;;2.42;;
46322;SDS011;32044;52.386;13.278;2023-02-02T14:06:02;9.52;;;1.92;;
46322;SDS011;32044;52.386;13.278;2023-02-02T14:08:32;12.88;;;1.77;;
46322;SDS011;32044;52.386;13.278;2023-02-02T14:11:00;7.28;;;1.60;;
46322;SDS011;32044;52.386;13.278;2023-02-02T14:13:33;12.48;;;1.92;;
46322;SDS011;32044;52.386;13.278;2023-02-02T14:16:41;9.60;;;2.33;;
46322;SDS011;32044;52.386;13.278;2023-02-02T14:22:18;7.40;;;1.60;;
46322;SDS011;32044;52.386;13.278;2023-02-02T14:24:47;9.20;;;2.28;;
46322;SDS011;32044;52.386;13.278;2023-02-02T14:30:33;6.82;;;1.60;;
46322;SDS011;32044;52.386;13.278;2023-02-02T14:33:17;6.70;;;2.15;;
46322;SDS011;32044;52.386;13.278;2023-02-02T14:35:52;11.60;;;2.08;;
46322;SDS011;32044;52.386;13.278;2023-02-02T14:38:33;6.18;;;1.38;;
46322;SDS011;32044;52.386;13.278;2023-02-02T14:41:27;6.93;;;1.58;;
46322;SDS011;32044;52.386;13.278;2023-02-02T14:44:17;5.10;;;1.75;;
46322;SDS011;32044;52.386;13.278;2023-02-02T14:46:46;7.35;;;1.80;;
46322;SDS011;32044;52.386;13.278;2023-02-02T14:49:18;12.60;;;1.88;;
46322;SDS011;32044;52.386;13.278;2023-02-02T14:51:50;5.95;;;1.48;;
46322;SDS011;32044;52.386;13.278;2023-02-02T14:54:21;7.90;;;1.35;;
46322;SDS011;32044;52.386;13.278;2023-02-02T14:56:52;4.32;;;1.05;;
46322;SDS011;32044;52.386;13.278;2023-02-02T14:59:23;10.82;;;2.13;;
46322;SDS011;32044;52.386;13.278;2023-02-02T15:01:58;5.90;;;1.48;;
46322;SDS011;32044;52.386;13.278;2023-02-02T15:04:28;7.88;;;1.85;;